New Shoreham, Rhode Island
Current Conditions -  °F | °C
As of 11:15 AM on Friday 24 Oct 2014 (Local Time) from KBID Reporting Station
Broken Clouds Broken Clouds  
Wind Chill: 12°   Ceiling: 1100
Heat Index: 12°   Visibility: 10mi
Dew Point:   Wind: 13mph
Humidity: 77%   Direction: 320°NW
Pressure: 29.71"   Gusts: 18mph
Location:  41.1768°N, 71.5785°W
Report Text: KBID 241515Z AUTO 32011G16KT 10SM BKN011 12/08 A2971 RMK AO1
Loading
Personal Weather Stations






























Interactive Weather Map
Tropical Storm Tracking
New forecast layout! Learn more

10-Day Weather Forecast

Advertisements
Track Severe Weather on mobile